2VA5 weather

Rosegill Farm Airstrip
Urbanna, Virginia, United States

Public forecast

Using degrees Fahrenheit for public forecast. Weather courtesy of forecast.io.

METAR (pilot weather report)

Closest report is Middle Peninsula Regional Airport, 11.6 nm (21.4 km) SW. Retrieved 2019/07/20 02:35 UTC (0 seconds ago):

KFYJ 200235Z AUTO 00000KT 10SM CLR 27/26 A2996 RMK AO1 T02710261

TAF (pilot weather forecast)

Forecast is more than 6 hours old.

Closest forecast is Felker Army Air Field, 30.0 nm (55.5 km) S. Retrieved 2019/07/19 18:18 UTC (8 hours ago):

TAF KFAF 191800Z 1918/2024 23009KT 9999 SCT040 SCT200 QNH2987INS TEMPO 1919/1922 VRB12G20KT 9000 -TSRA BKN040CB BECMG 1923/1924 20006KT 9999 FEW040 QNH2983INS TX35/2018Z TN26/2008Z LAST NO AMDS AFT 2003 NEXT 2210